»·PEaware :: SKW24 KEGE-KDEN

SKW24 :: KEGE-KDEN

FLIGHT INFORMATION

Flight Status: Arrived
Operator:
SkyWest Airlines
More flights by this operator :: More flights under this callsign
Pilot: Nathan P. (3026)
Aircraft: BRITISH AERO BAe-4100 JETSTREAM 41
(JS41)
More flights by this aircraft type
Origin: KEGE Eagle Co Regl
United States
Destination: KDEN Denver Intl
United States
More flights between these airports :: More routes between these airports
Route: GYPSM6 RLG TOMSN7
File this flight plan on PilotEdge
Remarks:
Altitude:
(Current/Filed)
17,000ft
Speed:
(Current/Filed)
240kts
Departed: 07-Nov-19 08:52 AM
Arrived: 07-Nov-19 09:32 AM
Distance/Time
Traveled:
105nm/0:40
Distance/Time
To Go:
Arrived

Flight Plot

Page will automatically refresh every two minutes.

Flight plan parsing failed; only flown route is shown


Map Options




Map Legend


Flown Route
Filed Route
Departure Airport
Arrival Airport
Navaid (VOR, NDB)
Fix

Horizontal Profiles

Position Reports

Time Latitude Longitude Heading Altitude Ground
Speed
07-Nov-19 08:23 39.640592 -106.915458 171 6520ft 0kts
07-Nov-19 08:24 39.640592 -106.915458 171 6520ft 0kts
07-Nov-19 08:25 39.640592 -106.915458 171 6520ft 0kts
07-Nov-19 08:26 39.640592 -106.915458 171 6520ft 0kts
07-Nov-19 08:27 39.640592 -106.915458 171 6520ft 0kts
07-Nov-19 08:28 39.640592 -106.915458 171 6520ft 0kts
07-Nov-19 08:29 39.640592 -106.915458 171 6520ft 0kts
07-Nov-19 08:30 39.640592 -106.915458 171 6520ft 0kts
07-Nov-19 08:31 39.640592 -106.915458 171 6520ft 0kts
07-Nov-19 08:32 39.640592 -106.915458 171 6520ft 0kts
07-Nov-19 08:33 39.640592 -106.915458 171 6520ft 0kts
07-Nov-19 08:34 39.640592 -106.915458 171 6520ft 0kts
07-Nov-19 08:35 39.640592 -106.915458 171 6520ft 0kts
07-Nov-19 08:36 39.640592 -106.915458 171 6520ft 0kts
07-Nov-19 08:37 39.640592 -106.915458 171 6520ft 0kts
07-Nov-19 08:38 39.640592 -106.915458 171 6520ft 0kts
07-Nov-19 08:39 39.640592 -106.915458 171 6520ft 0kts
07-Nov-19 08:40 39.640592 -106.915458 171 6520ft 0kts
07-Nov-19 08:41 39.640592 -106.915458 171 6520ft 0kts
07-Nov-19 08:42 39.640592 -106.915458 171 6520ft 0kts
07-Nov-19 08:43 39.640592 -106.915459 171 6520ft 0kts
07-Nov-19 08:44 39.640594 -106.915459 171 6520ft 0kts
07-Nov-19 08:45 39.640610 -106.915462 172 6520ft 1kts
07-Nov-19 08:46 39.640777 -106.915369 334 6520ft 0kts
07-Nov-19 08:47 39.641891 -106.913795 81 6520ft 18kts
07-Nov-19 08:48 39.642575 -106.907533 80 6520ft 21kts
07-Nov-19 08:49 39.643346 -106.900573 80 6520ft 0kts
07-Nov-19 08:50 39.644407 -106.900967 261 6520ft 8kts
07-Nov-19 08:51 39.639923 -106.938313 255 7304ft 142kts
07-Nov-19 08:52 39.610757 -106.977399 230 9114ft 164kts
07-Nov-19 08:53 39.610278 -107.030506 346 9977ft 208kts
07-Nov-19 08:54 39.654641 -107.064719 309 11832ft 185kts
07-Nov-19 08:55 39.703348 -107.083552 344 13237ft 185kts
07-Nov-19 08:56 39.756056 -107.089754 19 14341ft 207kts
07-Nov-19 08:57 39.788109 -107.024384 59 15272ft 225kts
07-Nov-19 08:58 39.815758 -106.950684 60 16173ft 227kts
07-Nov-19 08:59 39.843184 -106.876703 60 16990ft 231kts
07-Nov-19 09:00 39.872743 -106.796736 60 17005ft 255kts
07-Nov-19 09:01 39.904249 -106.711191 60 17003ft 268kts
07-Nov-19 09:02 39.937424 -106.620890 61 17005ft 286kts
07-Nov-19 09:03 39.972725 -106.524442 61 17004ft 300kts
07-Nov-19 09:04 40.014046 -106.429945 37 17003ft 298kts
07-Nov-19 09:06 40.078770 -106.362689 34 17004ft 299kts
07-Nov-19 09:07 40.143644 -106.294301 34 16999ft 299kts
07-Nov-19 09:08 40.208496 -106.225853 34 16995ft 300kts
07-Nov-19 09:09 40.273450 -106.157148 34 16986ft 300kts
07-Nov-19 09:10 40.338283 -106.088393 34 17039ft 299kts
07-Nov-19 09:11 40.403010 -106.019587 34 17037ft 299kts
07-Nov-19 09:12 40.467798 -105.950534 34 17034ft 300kts
07-Nov-19 09:13 40.518488 -105.865268 75 17030ft 313kts
07-Nov-19 09:14 40.518992 -105.749846 87 17026ft 316kts
07-Nov-19 09:15 40.507937 -105.632842 117 16289ft 331kts
07-Nov-19 09:16 40.445477 -105.547467 137 16024ft 318kts
07-Nov-19 09:17 40.381931 -105.468128 137 16027ft 313kts
07-Nov-19 09:18 40.318917 -105.389912 137 16027ft 311kts
07-Nov-19 09:19 40.256202 -105.312268 137 16027ft 310kts
07-Nov-19 09:20 40.193370 -105.234726 137 16029ft 311kts
07-Nov-19 09:21 40.158281 -105.136038 91 15780ft 316kts
07-Nov-19 09:22 40.158289 -105.021007 81 14912ft 327kts
07-Nov-19 09:23 40.169712 -104.910692 79 13990ft 284kts
07-Nov-19 09:23 40.178802 -104.827869 78 12736ft 271kts
07-Nov-19 09:25 40.190930 -104.716335 90 10700ft 263kts
07-Nov-19 09:26 40.145532 -104.650634 174 8803ft 249kts
07-Nov-19 09:26 40.092894 -104.666621 199 8013ft 211kts
07-Nov-19 09:27 40.040729 -104.685722 183 8004ft 185kts
07-Nov-19 09:29 39.979874 -104.685790 181 7114ft 184kts
07-Nov-19 09:29 39.939957 -104.686373 180 6273ft 158kts
07-Nov-19 09:30 39.899878 -104.686794 179 5530ft 130kts
07-Nov-19 09:32 39.876336 -104.685515 149 5436ft 0kts
07-Nov-19 09:32 39.876024 -104.685356 158 5436ft 10kts
07-Nov-19 09:33 39.871370 -104.684678 117 5436ft 18kts
07-Nov-19 09:34 39.866412 -104.683877 179 5436ft 20kts
07-Nov-19 09:35 39.860721 -104.683938 180 5436ft 20kts
07-Nov-19 09:36 39.856018 -104.683054 93 5436ft 18kts
07-Nov-19 09:37 39.855965 -104.675888 89 5436ft 20kts
07-Nov-19 09:38 39.855894 -104.668471 110 5436ft 20kts
07-Nov-19 09:39 39.854098 -104.668759 133 5436ft 0kts
07-Nov-19 09:40 39.854098 -104.668759 133 5436ft 0kts
07-Nov-19 09:41 39.854098 -104.668759 133 5436ft 0kts
07-Nov-19 09:42 39.854098 -104.668759 133 5436ft 0kts
07-Nov-19 09:43 39.854098 -104.668759 133 5436ft 0kts
07-Nov-19 09:44 39.854098 -104.668759 133 5436ft 0kts
07-Nov-19 09:45 39.854098 -104.668759 133 5436ft 0kts

Navigation Log

Ident Type
Flight plan parsing failed, navigation log unavailable